Language selection

Features

My Weather Profile Weather Topics  | 

Central - western half: Past 24 Hour Conditions

 

Baker Lake Airport

03:00 PM CST 17 January 2020
Disclaimer

This table is a summary of hourly weather conditions for the past 24 hours.
Please note that these observations might not always be representative of weather conditions over their associated marine area.

Date / Time
(CST)
Wind(knots) Conditions Visibility(km) Pressure(kPa) Air tempC) Relative humidity(%) Dew pointC) Wind Chill
17 January 2020
15:00 W 8 Mainly Sunny 40 103.2 -26 70 -30 -36
14:00 WSW 9 Mainly Sunny 40 103.2 -25 71 -29 -36
13:00 SW 8 Light Snow 40 103.2 -25 72 -29 -35
12:00 SW 7 Light Snow 40 103.2 -25 71 -29 -35
11:00 WNW 10 Light Snow 40 103.1 -25 70 -29 -36
10:00 WSW 5 Light Snow 40 103.1 -25 71 -29 -32
9:00 WNW 19 Drifting Snow 24 103.0 -26 70 -29 -41
8:00 NW 21 Drifting Snow 24 102.9 -25 72 -29 -41
7:00 WNW 21 Drifting Snow 16 102.8 -24 73 -27 -39
6:00 WNW 18 Drifting Snow 24 102.8 -23 72 -27 -37
5:00 WNW 16 Light Snow 24 102.8 -21 73 -25 -34
4:00 W 10 Light Snow 16 102.8 -20 73 -23 -29
3:00 W 12 Light Snow 16 102.7 -19 73 -23 -30
2:00 WNW 17 Light Snow 16 102.7 -19 74 -22 -31
1:00 WNW 20 Light Snow 16 102.6 -19 75 -22 -32
0:00 WNW 19 Light Snow 16 102.6 -19 75 -22 -32
16 January 2020
23:00 WNW 18 Light Snow 16 102.6 -19 76 -22 -32
22:00 W 14 gust 19 Light Snow 16 102.6 -19 75 -22 -30
21:00 WNW 16 gust 21 Light Snow 24 102.5 -19 74 -22 -31
20:00 W 16 gust 22 Light Snow 24 102.5 -19 74 -22 -31
19:00 W 14 Light Snow 24 102.6 -18 74 -22 -29
18:00 W 17 Light Snow 24 102.6 -18 74 -22 -30
17:00 WNW 19 gust 25 Light Snow 24 102.5 -18 76 -21 -30
16:00 WNW 18 Light Snow 16 102.5 -18 75 -21 -30
15:00 W 16 Light Snow 16 102.5 -17 75 -21 -29

Zoom-in to make a selection

Map of Hudson - Hudson Bay marine weather areas Arviat Airport Baker Lake Airport Chesterfield Inlet Airport Coral Harbour Airport Rankin Inlet Airport Sanikiluaq Airport Whale Cove Airport Cape Dorset Airport Iqaluit Airport Wager Bay Kimmirut Airport Churchill Airport Fort Severn Airport Peawanuck Airport Moosonee Airport Eastmain Airport La Grande Rivière Airport Waskaganish Airport Wemindji Airport Akulivik Airport Inukjuak Airport Ivujivik Airport Kuujjuarapik Airport Puvirnituq Airport Umiujaq Airport Aupaluk Airport Kangiqsujuaq Airport Kangirsuk Airport Kangiqsualujjuaq Airport Kuujjuaq Airport Quaqtaq Airport Salluit Airport Tasiujaq Airport Cape Kakkiviak
Legend:
buoy Buoy
land station Land Station

Hudson - Hudson Bay Area

Another Region

What we are doing

Date modified: